Time;durP1;ratioP1;P1;durP2;ratioP2;P2;SDS_P1;SDS_P2;PMS_P1;PMS_P2;Temp;Humidity;BMP_temperature;BMP_pressure;BME280_temperature;BME280_humidity;BME280_pressure;Samples;Min_cycle;Max_cycle;Signal;HPM_P1;HPM_P2
2023/12/16 00:01:03;;;;;;;0.10;0.10;;;7.50;84.80;;;;;;5088604;28;20102;-68
2023/12/16 00:03:29;;;;;;;0.00;0.00;;;7.60;85.20;;;;;;5089437;28;20050;-68
2023/12/16 00:05:54;;;;;;;0.00;0.00;;;7.40;85.00;;;;;;5090489;28;20046;-68
2023/12/16 00:08:21;;;;;;;0.00;0.00;;;7.40;84.90;;;;;;5090440;28;20127;-68
2023/12/16 00:10:47;;;;;;;0.43;0.43;;;7.40;84.70;;;;;;5089230;28;20516;-68
2023/12/16 00:13:13;;;;;;;0.10;0.10;;;7.40;85.10;;;;;;5090365;28;20044;-68
2023/12/16 00:15:38;;;;;;;0.00;0.00;;;7.30;85.30;;;;;;5090515;28;20696;-68
2023/12/16 00:18:04;;;;;;;0.00;0.00;;;7.30;85.10;;;;;;5090349;28;20044;-68
2023/12/16 00:20:30;;;;;;;0.10;0.10;;;7.30;85.40;;;;;;5068615;28;20113;-68
2023/12/16 00:22:55;;;;;;;0.00;0.00;;;7.30;85.50;;;;;;5072466;28;20059;-68
2023/12/16 00:25:21;;;;;;;0.65;0.65;;;7.30;85.60;;;;;;5089635;28;20064;-68
2023/12/16 00:27:46;;;;;;;0.10;0.10;;;7.30;85.50;;;;;;5090238;28;20975;-68
2023/12/16 00:30:12;;;;;;;0.00;0.00;;;7.20;85.60;;;;;;5072451;28;20044;-68
2023/12/16 00:32:39;;;;;;;0.00;0.00;;;7.20;85.70;;;;;;5089614;28;20450;-68
2023/12/16 00:35:07;;;;;;;0.00;0.00;;;7.10;85.40;;;;;;5090047;28;20039;-68
2023/12/16 00:37:33;;;;;;;0.00;0.00;;;7.10;85.50;;;;;;5090427;28;20055;-68
2023/12/16 00:39:59;;;;;;;0.00;0.00;;;7.10;85.40;;;;;;5089511;28;20032;-68
2023/12/16 00:42:25;;;;;;;0.00;0.00;;;7.00;85.40;;;;;;5071706;28;20047;-68
2023/12/16 00:44:50;;;;;;;1.02;0.77;;;7.00;85.60;;;;;;5072296;28;20052;-68
2023/12/16 00:47:16;;;;;;;0.00;0.00;;;7.00;85.40;;;;;;5090157;28;20052;-68
2023/12/16 00:49:42;;;;;;;0.20;0.20;;;7.00;85.60;;;;;;5090004;28;20046;-68
2023/12/16 00:52:07;;;;;;;0.00;0.00;;;6.90;85.60;;;;;;5089820;28;20043;-68
2023/12/16 00:54:33;;;;;;;0.00;0.00;;;7.00;85.70;;;;;;5072201;28;20036;-68
2023/12/16 00:56:58;;;;;;;0.00;0.00;;;6.90;85.40;;;;;;5088939;28;20040;-68
2023/12/16 00:59:26;;;;;;;0.10;0.10;;;6.90;85.60;;;;;;5089918;28;20040;-68
2023/12/16 01:01:52;;;;;;;0.00;0.00;;;6.90;85.60;;;;;;5091066;28;20052;-68
2023/12/16 01:04:18;;;;;;;0.00;0.00;;;6.80;85.50;;;;;;5089939;28;20047;-68
2023/12/16 01:06:43;;;;;;;0.10;0.10;;;6.90;85.70;;;;;;5089879;28;20048;-69
2023/12/16 01:09:10;;;;;;;0.00;0.00;;;6.80;85.70;;;;;;5089710;28;20048;-68
2023/12/16 01:11:36;;;;;;;0.10;0.10;;;6.90;85.90;;;;;;5089337;28;20132;-68
2023/12/16 01:14:01;;;;;;;0.10;0.10;;;6.80;85.60;;;;;;5089165;28;20114;-68
2023/12/16 01:16:27;;;;;;;0.00;0.00;;;6.80;85.60;;;;;;5089224;28;20665;-68
2023/12/16 01:18:53;;;;;;;0.00;0.00;;;6.80;85.60;;;;;;5089545;28;20080;-69
2023/12/16 01:21:19;;;;;;;0.00;0.00;;;6.80;85.50;;;;;;5071412;28;20410;-68
2023/12/16 01:23:44;;;;;;;2.03;1.88;;;6.80;85.70;;;;;;5089304;28;20093;-68
2023/12/16 01:26:11;;;;;;;0.00;0.00;;;6.80;85.40;;;;;;5088887;28;20056;-69
2023/12/16 01:28:37;;;;;;;0.00;0.00;;;6.80;85.60;;;;;;5088263;28;20032;-69
2023/12/16 01:31:03;;;;;;;0.10;0.10;;;6.70;85.60;;;;;;5070833;28;20047;-68
2023/12/16 01:33:29;;;;;;;0.00;0.00;;;6.70;85.70;;;;;;5088676;28;20823;-68
2023/12/16 01:35:55;;;;;;;0.00;0.00;;;6.70;85.80;;;;;;5088558;28;20708;-68
2023/12/16 01:38:21;;;;;;;0.00;0.00;;;6.70;85.80;;;;;;5089105;28;20047;-68
2023/12/16 01:40:46;;;;;;;0.10;0.10;;;6.70;85.80;;;;;;5089082;28;20040;-68
2023/12/16 01:43:12;;;;;;;0.00;0.00;;;6.70;86.00;;;;;;5089347;28;20059;-68
2023/12/16 01:45:37;;;;;;;0.05;0.05;;;6.60;85.90;;;;;;5088422;28;20036;-68
2023/12/16 01:48:04;;;;;;;0.03;0.03;;;6.60;86.00;;;;;;5089000;28;20509;-68
2023/12/16 01:50:30;;;;;;;0.00;0.00;;;6.60;86.20;;;;;;5087878;28;20051;-68
2023/12/16 01:52:57;;;;;;;0.08;0.08;;;6.60;86.30;;;;;;5088865;28;20051;-68
2023/12/16 01:55:23;;;;;;;0.00;0.00;;;6.60;86.40;;;;;;5089010;28;20123;-68
2023/12/16 01:57:48;;;;;;;0.00;0.00;;;6.60;86.50;;;;;;5104518;28;20217;-68
2023/12/16 02:00:15;;;;;;;0.00;0.00;;;6.50;86.70;;;;;;5088826;28;20488;-68
2023/12/16 02:02:41;;;;;;;0.00;0.00;;;6.60;86.80;;;;;;5088800;28;20044;-68
2023/12/16 02:05:07;;;;;;;0.00;0.00;;;6.50;86.80;;;;;;5089068;28;20181;-68
2023/12/16 02:07:33;;;;;;;0.00;0.00;;;6.50;86.90;;;;;;5088775;28;20044;-68
2023/12/16 02:10:01;;;;;;;0.00;0.00;;;6.40;87.10;;;;;;5088661;28;20050;-68
2023/12/16 02:12:27;;;;;;;0.03;0.03;;;6.40;87.20;;;;;;5088289;28;20114;-68
2023/12/16 02:14:53;;;;;;;0.00;0.00;;;6.40;87.20;;;;;;5088388;28;20048;-68
2023/12/16 02:17:19;;;;;;;0.10;0.10;;;6.40;87.40;;;;;;5088558;28;20051;-68
2023/12/16 02:19:47;;;;;;;0.00;0.00;;;6.40;87.40;;;;;;5088032;28;20414;-68
2023/12/16 02:22:13;;;;;;;0.00;0.00;;;6.40;87.70;;;;;;5088413;28;20048;-68
2023/12/16 02:24:41;;;;;;;0.00;0.00;;;6.40;87.60;;;;;;5088486;28;20047;-68
2023/12/16 02:27:08;;;;;;;0.05;0.05;;;6.50;87.70;;;;;;5088693;28;20048;-68
2023/12/16 02:29:33;;;;;;;0.03;0.03;;;6.50;87.90;;;;;;5088519;28;20055;-68
2023/12/16 02:31:59;;;;;;;0.00;0.00;;;6.50;88.00;;;;;;5088158;28;20411;-68
2023/12/16 02:34:25;;;;;;;0.00;0.00;;;6.60;88.10;;;;;;5088537;28;20050;-68
2023/12/16 02:36:51;;;;;;;0.00;0.00;;;6.40;88.30;;;;;;5088361;28;20052;-68
2023/12/16 02:39:17;;;;;;;0.00;0.00;;;6.40;88.40;;;;;;5088799;28;20043;-68
2023/12/16 02:41:43;;;;;;;0.00;0.00;;;6.50;88.50;;;;;;5087851;28;20180;-68
2023/12/16 02:44:09;;;;;;;0.00;0.00;;;6.40;88.40;;;;;;5088339;28;20052;-68
2023/12/16 02:46:34;;;;;;;0.00;0.00;;;6.40;88.60;;;;;;5088088;28;20387;-68
2023/12/16 02:49:00;;;;;;;0.00;0.00;;;6.40;88.80;;;;;;5087973;28;20047;-68
2023/12/16 02:51:25;;;;;;;1.58;1.48;;;6.40;88.80;;;;;;5088040;28;20189;-68
2023/12/16 02:53:52;;;;;;;0.03;0.03;;;6.40;89.00;;;;;;5088167;28;20051;-68
2023/12/16 02:56:18;;;;;;;0.00;0.00;;;6.40;89.00;;;;;;5088136;28;20078;-68
2023/12/16 02:58:44;;;;;;;0.68;0.68;;;6.40;89.00;;;;;;5087688;28;20097;-68
2023/12/16 03:01:10;;;;;;;0.17;0.17;;;6.40;89.00;;;;;;5088048;28;20039;-68
2023/12/16 03:03:39;;;;;;;0.03;0.03;;;6.40;89.00;;;;;;5087606;28;20056;-68
2023/12/16 03:06:06;;;;;;;0.00;0.00;;;6.40;89.10;;;;;;5103745;28;20394;-68
2023/12/16 03:08:32;;;;;;;0.20;0.20;;;6.40;89.10;;;;;;5088195;28;20040;-68
2023/12/16 03:10:59;;;;;;;0.10;0.10;;;6.40;89.10;;;;;;5087680;28;20058;-68
2023/12/16 03:13:24;;;;;;;1.85;1.13;;;6.40;89.10;;;;;;5069644;28;20051;-68
2023/12/16 03:15:50;;;;;;;0.00;0.00;;;6.40;89.20;;;;;;5087847;28;20711;-68
2023/12/16 03:18:15;;;;;;;0.10;0.10;;;6.40;89.20;;;;;;5087663;28;20044;-68
2023/12/16 03:20:41;;;;;;;0.03;0.03;;;6.40;89.20;;;;;;5087166;28;20051;-69
2023/12/16 03:23:06;;;;;;;0.00;0.00;;;6.40;89.20;;;;;;5087269;28;20638;-68
2023/12/16 03:25:32;;;;;;;0.00;0.00;;;6.40;89.20;;;;;;5087145;28;20059;-68
2023/12/16 03:27:58;;;;;;;0.03;0.03;;;6.40;89.30;;;;;;5087280;28;20123;-68
2023/12/16 03:30:23;;;;;;;1.77;1.48;;;6.40;89.40;;;;;;5087248;28;20092;-68
2023/12/16 03:32:49;;;;;;;0.00;0.00;;;6.40;89.40;;;;;;5068499;28;20418;-68
2023/12/16 03:35:14;;;;;;;0.05;0.05;;;6.40;89.50;;;;;;5086855;28;20044;-68
2023/12/16 03:37:40;;;;;;;0.10;0.10;;;6.50;89.60;;;;;;5087112;28;20168;-68
2023/12/16 03:40:06;;;;;;;1.30;0.55;;;6.40;89.60;;;;;;5087164;28;20795;-68
2023/12/16 03:42:33;;;;;;;0.00;0.00;;;6.50;89.60;;;;;;5069288;28;20108;-68
2023/12/16 03:44:58;;;;;;;0.10;0.10;;;6.50;89.70;;;;;;5087233;28;20122;-69
2023/12/16 03:47:24;;;;;;;0.00;0.00;;;6.60;89.70;;;;;;5086717;28;20119;-69
2023/12/16 03:49:50;;;;;;;0.10;0.10;;;6.50;89.80;;;;;;5086856;28;20047;-69
2023/12/16 03:52:15;;;;;;;0.00;0.00;;;6.60;90.10;;;;;;5086720;28;20461;-68
2023/12/16 03:54:41;;;;;;;0.10;0.10;;;6.60;90.10;;;;;;5086690;28;20052;-69
2023/12/16 03:57:06;;;;;;;0.38;0.38;;;6.60;90.00;;;;;;5087042;28;20043;-68
2023/12/16 03:59:32;;;;;;;0.08;0.08;;;6.60;90.10;;;;;;5086847;28;20490;-69
2023/12/16 04:01:58;;;;;;;0.10;0.10;;;6.60;90.10;;;;;;5087052;28;20113;-69
2023/12/16 04:04:23;;;;;;;0.10;0.10;;;6.60;90.10;;;;;;5087171;28;20514;-69
2023/12/16 04:06:49;;;;;;;0.43;0.43;;;6.60;90.20;;;;;;5086916;28;20052;-69
2023/12/16 04:09:14;;;;;;;0.00;0.00;;;6.50;90.20;;;;;;5069175;28;20684;-68
2023/12/16 04:11:48;;;;;;;0.30;0.30;;;6.50;90.20;;;;;;5086946;28;20044;-68
2023/12/16 04:14:13;;;;;;;0.52;0.52;;;6.40;90.20;;;;;;5087123;28;20044;-68
2023/12/16 04:16:39;;;;;;;0.00;0.00;;;6.50;90.20;;;;;;5086910;28;20055;-68
2023/12/16 04:19:05;;;;;;;0.10;0.10;;;6.50;90.30;;;;;;5086790;28;20847;-68
2023/12/16 04:21:32;;;;;;;0.00;0.00;;;6.40;90.20;;;;;;5086772;28;20078;-68
2023/12/16 04:23:58;;;;;;;0.10;0.10;;;6.50;90.20;;;;;;5086674;28;20454;-68
2023/12/16 04:26:24;;;;;;;0.00;0.00;;;6.40;90.30;;;;;;5068674;28;20044;-68
2023/12/16 04:28:49;;;;;;;0.10;0.10;;;6.40;90.20;;;;;;5086632;28;20044;-68
2023/12/16 04:31:17;;;;;;;0.00;0.00;;;6.40;90.40;;;;;;5087059;28;20040;-69
2023/12/16 04:33:43;;;;;;;0.00;0.00;;;6.40;90.30;;;;;;5086220;28;20043;-69
2023/12/16 04:36:13;;;;;;;0.00;0.00;;;6.40;90.40;;;;;;5086972;28;20044;-69
2023/12/16 04:38:39;;;;;;;0.00;0.00;;;6.40;90.40;;;;;;5086662;28;20046;-69
2023/12/16 04:41:04;;;;;;;0.00;0.00;;;6.40;90.50;;;;;;5086624;28;20417;-69
2023/12/16 04:43:30;;;;;;;0.10;0.10;;;6.40;90.60;;;;;;5089001;28;20037;-68
2023/12/16 04:45:56;;;;;;;1.38;1.27;;;6.40;90.80;;;;;;5090247;28;20040;-68
2023/12/16 04:48:21;;;;;;;0.55;0.55;;;6.40;90.80;;;;;;5090276;28;20040;-68
2023/12/16 04:50:47;;;;;;;0.13;0.13;;;6.40;90.70;;;;;;5090367;28;20386;-68
2023/12/16 04:53:12;;;;;;;0.10;0.10;;;6.40;90.90;;;;;;5090644;28;20048;-68
2023/12/16 04:55:38;;;;;;;0.10;0.10;;;6.40;91.00;;;;;;5090147;28;20115;-68
2023/12/16 04:58:04;;;;;;;0.00;0.00;;;6.40;90.90;;;;;;5090455;28;20052;-68
2023/12/16 05:00:29;;;;;;;0.03;0.03;;;6.40;90.90;;;;;;5090150;28;20204;-68
2023/12/16 05:02:55;;;;;;;0.00;0.00;;;6.40;91.00;;;;;;5072199;28;20048;-68
2023/12/16 05:05:21;;;;;;;0.10;0.10;;;6.40;90.90;;;;;;5072227;28;20498;-69
2023/12/16 05:07:46;;;;;;;0.00;0.00;;;6.40;91.10;;;;;;5090156;28;20773;-69
2023/12/16 05:10:12;;;;;;;0.10;0.10;;;6.40;91.10;;;;;;5071846;28;20047;-69
2023/12/16 05:12:39;;;;;;;0.10;0.10;;;6.30;91.10;;;;;;5090094;28;20044;-69
2023/12/16 05:15:06;;;;;;;0.13;0.13;;;6.40;91.10;;;;;;5090199;28;20896;-69
2023/12/16 05:17:32;;;;;;;0.00;0.00;;;6.40;91.10;;;;;;5089842;28;20040;-69
2023/12/16 05:19:57;;;;;;;0.00;0.00;;;6.40;91.20;;;;;;5089979;28;20105;-69
2023/12/16 05:22:23;;;;;;;0.20;0.20;;;6.40;91.20;;;;;;5089029;28;20121;-69
2023/12/16 05:24:48;;;;;;;0.10;0.10;;;6.40;91.40;;;;;;5089258;28;20056;-69
2023/12/16 05:27:14;;;;;;;0.77;0.77;;;6.50;91.30;;;;;;5089549;28;20052;-69
2023/12/16 05:29:40;;;;;;;0.00;0.00;;;6.50;91.40;;;;;;5089302;28;20093;-69
2023/12/16 05:32:06;;;;;;;0.08;0.08;;;6.60;91.50;;;;;;5071565;28;20528;-69
2023/12/16 05:34:31;;;;;;;0.00;0.00;;;6.60;91.50;;;;;;5089372;28;20040;-69
2023/12/16 05:36:57;;;;;;;1.08;1.00;;;6.60;91.50;;;;;;5054294;28;20059;-69
2023/12/16 05:39:22;;;;;;;0.10;0.10;;;6.60;91.50;;;;;;5089154;28;20047;-68
2023/12/16 05:41:49;;;;;;;0.40;0.40;;;6.70;91.50;;;;;;5088869;28;20486;-68
2023/12/16 05:44:15;;;;;;;0.10;0.10;;;6.60;91.60;;;;;;5105143;28;20051;-69
2023/12/16 05:46:40;;;;;;;0.00;0.00;;;6.70;91.60;;;;;;5088566;28;20046;-68
2023/12/16 05:49:06;;;;;;;0.10;0.10;;;6.70;91.70;;;;;;5089112;28;20119;-69
2023/12/16 05:51:39;;;;;;;0.00;0.00;;;6.80;91.80;;;;;;5089071;28;20486;-68
2023/12/16 05:54:07;;;;;;;0.10;0.10;;;6.80;92.10;;;;;;5087629;28;20151;-68
2023/12/16 05:56:33;;;;;;;0.00;0.00;;;6.90;92.20;;;;;;5088985;28;20040;-69
2023/12/16 05:58:58;;;;;;;0.05;0.05;;;6.90;92.30;;;;;;5088625;28;20055;-68
2023/12/16 06:01:24;;;;;;;1.17;1.05;;;6.90;92.30;;;;;;5088891;28;20036;-68
2023/12/16 06:03:49;;;;;;;0.00;0.00;;;7.00;92.20;;;;;;5088866;28;20470;-69
2023/12/16 06:06:15;;;;;;;0.30;0.30;;;6.90;92.40;;;;;;5088626;28;20097;-69
2023/12/16 06:08:42;;;;;;;0.00;0.00;;;7.00;92.50;;;;;;5105125;28;20389;-69
2023/12/16 06:11:12;;;;;;;0.00;0.00;;;7.00;92.40;;;;;;5089142;28;20575;-69
2023/12/16 06:13:39;;;;;;;0.63;0.63;;;7.00;92.60;;;;;;5070439;28;20060;-69
2023/12/16 06:16:08;;;;;;;10.10;0.90;;;7.00;92.60;;;;;;5104998;28;20052;-69
2023/12/16 06:18:36;;;;;;;0.63;0.63;;;7.00;92.60;;;;;;5088618;28;20044;-69
2023/12/16 06:21:02;;;;;;;0.00;0.00;;;7.00;92.60;;;;;;5088737;28;20079;-69
2023/12/16 06:23:30;;;;;;;0.25;0.25;;;7.00;92.80;;;;;;5088388;28;20128;-69
2023/12/16 06:25:55;;;;;;;0.00;0.00;;;7.00;92.70;;;;;;5088070;28;20587;-69
2023/12/16 06:28:21;;;;;;;0.20;0.20;;;7.10;92.80;;;;;;5088781;28;20090;-69
2023/12/16 06:30:47;;;;;;;0.10;0.10;;;7.00;92.80;;;;;;5088480;28;20094;-69
2023/12/16 06:33:13;;;;;;;0.00;0.00;;;7.00;92.80;;;;;;5088549;28;20082;-69
2023/12/16 06:35:39;;;;;;;1.55;1.25;;;7.10;92.80;;;;;;5088106;28;20108;-68
2023/12/16 06:38:04;;;;;;;1.77;1.25;;;7.10;92.90;;;;;;5070425;28;20052;-68
2023/12/16 06:40:31;;;;;;;1.75;0.70;;;7.10;92.90;;;;;;5088468;28;20058;-69
2023/12/16 06:42:57;;;;;;;0.00;0.00;;;7.10;92.80;;;;;;5088374;28;20058;-69
2023/12/16 06:45:23;;;;;;;0.00;0.00;;;7.10;92.80;;;;;;5088301;28;20044;-69
2023/12/16 06:47:49;;;;;;;0.10;0.10;;;7.10;92.70;;;;;;5087528;28;20414;-69
2023/12/16 06:50:14;;;;;;;0.10;0.10;;;7.10;92.80;;;;;;5088085;28;20047;-68
2023/12/16 06:52:40;;;;;;;0.63;0.63;;;7.10;92.80;;;;;;5070089;28;20051;-68
2023/12/16 06:55:06;;;;;;;0.20;0.20;;;7.20;92.90;;;;;;5087875;28;20036;-69
2023/12/16 06:57:32;;;;;;;0.00;0.00;;;7.20;93.00;;;;;;5087433;28;20128;-69
2023/12/16 06:59:57;;;;;;;0.00;0.00;;;7.20;93.00;;;;;;5087910;28;20528;-69
2023/12/16 07:02:24;;;;;;;0.00;0.00;;;7.30;93.00;;;;;;5087872;28;20162;-69
2023/12/16 07:04:50;;;;;;;0.10;0.10;;;7.20;92.90;;;;;;5087679;28;20051;-68
2023/12/16 07:07:16;;;;;;;0.05;0.05;;;7.30;93.00;;;;;;5103236;28;20051;-69
2023/12/16 07:09:41;;;;;;;0.10;0.10;;;7.30;93.00;;;;;;5087501;28;20040;-69
2023/12/16 07:12:07;;;;;;;0.05;0.05;;;7.40;93.10;;;;;;5087668;28;20043;-68
2023/12/16 07:14:34;;;;;;;0.82;0.82;;;7.40;93.10;;;;;;5087458;28;20032;-68
2023/12/16 07:17:00;;;;;;;0.15;0.15;;;7.40;93.20;;;;;;5103365;28;20051;-68
2023/12/16 07:19:27;;;;;;;4.68;0.70;;;7.40;93.20;;;;;;5087179;28;20561;-68
2023/12/16 07:21:53;;;;;;;0.70;0.38;;;7.40;93.20;;;;;;5087548;28;20090;-68
2023/12/16 07:24:19;;;;;;;0.10;0.10;;;7.50;93.20;;;;;;5087283;28;20051;-68
2023/12/16 07:26:45;;;;;;;0.00;0.00;;;7.50;93.20;;;;;;5086721;28;20048;-69
2023/12/16 07:29:10;;;;;;;0.00;0.00;;;7.50;93.20;;;;;;5087057;28;20051;-68
2023/12/16 07:31:36;;;;;;;0.00;0.00;;;7.50;93.20;;;;;;5087136;28;20073;-68
2023/12/16 07:34:03;;;;;;;1.40;1.33;;;7.50;93.20;;;;;;5087371;28;20052;-69
2023/12/16 07:36:28;;;;;;;0.32;0.32;;;7.50;93.20;;;;;;5069267;28;20069;-68
2023/12/16 07:38:55;;;;;;;0.63;0.63;;;7.60;93.30;;;;;;5086786;28;20044;-69
2023/12/16 07:41:21;;;;;;;0.00;0.00;;;7.60;93.30;;;;;;5087310;28;20048;-69
2023/12/16 07:43:47;;;;;;;0.30;0.30;;;7.60;93.40;;;;;;5102696;28;20051;-69
2023/12/16 07:46:15;;;;;;;0.30;0.30;;;7.60;93.30;;;;;;5087324;28;20760;-69
2023/12/16 07:48:42;;;;;;;0.03;0.03;;;7.60;93.30;;;;;;5086690;28;20059;-69
2023/12/16 07:51:17;;;;;;;0.45;0.45;;;7.60;93.30;;;;;;5086828;28;20414;-69
2023/12/16 07:53:46;;;;;;;0.03;0.03;;;7.70;93.30;;;;;;5087059;28;20048;-69
2023/12/16 07:56:16;;;;;;;0.10;0.10;;;7.60;93.30;;;;;;5102861;28;20044;-69
2023/12/16 07:58:42;;;;;;;0.05;0.05;;;7.60;93.30;;;;;;5086489;28;20051;-69
2023/12/16 08:01:16;;;;;;;0.05;0.05;;;7.60;93.20;;;;;;5086780;28;20126;-69
2023/12/16 08:03:42;;;;;;;0.08;0.08;;;7.70;93.20;;;;;;5086934;28;20048;-69
2023/12/16 08:06:11;;;;;;;0.00;0.00;;;7.60;93.20;;;;;;5086851;28;20489;-69
2023/12/16 08:08:38;;;;;;;0.00;0.00;;;7.70;93.20;;;;;;5086945;28;20150;-68
2023/12/16 08:11:05;;;;;;;0.43;0.43;;;7.70;93.20;;;;;;5086796;28;20044;-69
2023/12/16 08:13:31;;;;;;;0.20;0.20;;;7.70;93.30;;;;;;5103296;28;20055;-69
2023/12/16 08:15:57;;;;;;;0.45;0.45;;;7.70;93.20;;;;;;5086905;28;20831;-69
2023/12/16 08:18:22;;;;;;;0.00;0.00;;;7.70;93.20;;;;;;5089026;28;20083;-69
2023/12/16 08:20:48;;;;;;;0.22;0.22;;;7.70;93.20;;;;;;5090794;28;20043;-68
2023/12/16 08:23:15;;;;;;;0.00;0.00;;;7.70;93.10;;;;;;5106752;28;20048;-69
2023/12/16 08:25:41;;;;;;;0.10;0.10;;;7.70;93.10;;;;;;5090089;28;20062;-69
2023/12/16 08:28:06;;;;;;;0.00;0.00;;;7.70;93.20;;;;;;5090741;28;20044;-68
2023/12/16 08:30:32;;;;;;;0.15;0.15;;;7.70;93.10;;;;;;5090975;28;20052;-69
2023/12/16 08:32:57;;;;;;;0.10;0.10;;;7.80;93.10;;;;;;5090593;28;20051;-69
2023/12/16 08:35:23;;;;;;;0.63;0.63;;;7.80;93.10;;;;;;5090541;28;20051;-69
2023/12/16 08:37:49;;;;;;;0.10;0.10;;;7.80;93.20;;;;;;5090199;28;20480;-69
2023/12/16 08:40:14;;;;;;;0.00;0.00;;;7.80;93.20;;;;;;5090414;28;20043;-68
2023/12/16 08:42:43;;;;;;;0.00;0.00;;;7.80;93.10;;;;;;5090251;28;20044;-69
2023/12/16 08:45:13;;;;;;;0.10;0.10;;;7.80;93.10;;;;;;5106185;28;20051;-69
2023/12/16 08:47:39;;;;;;;0.20;0.20;;;7.80;93.20;;;;;;5090114;28;20186;-68
2023/12/16 08:50:08;;;;;;;1.42;1.13;;;7.90;93.20;;;;;;5090377;28;20122;-68
2023/12/16 08:52:35;;;;;;;0.88;0.88;;;7.80;93.10;;;;;;5090155;28;20047;-69
2023/12/16 08:55:01;;;;;;;0.10;0.10;;;7.90;93.20;;;;;;5090298;28;20048;-68
2023/12/16 08:57:27;;;;;;;0.08;0.08;;;8.00;93.20;;;;;;5089936;28;20090;-68
2023/12/16 08:59:53;;;;;;;0.30;0.30;;;8.00;93.20;;;;;;5105855;28;20086;-68
2023/12/16 09:02:19;;;;;;;0.90;0.90;;;8.00;93.20;;;;;;5089865;28;20076;-68
2023/12/16 09:04:45;;;;;;;0.00;0.00;;;8.00;93.30;;;;;;5089758;28;20043;-68
2023/12/16 09:07:11;;;;;;;13.85;0.85;;;8.00;93.30;;;;;;5089532;28;20051;-68
2023/12/16 09:09:38;;;;;;;0.00;0.00;;;8.10;93.20;;;;;;5089653;28;20559;-68
2023/12/16 09:12:05;;;;;;;1.00;0.95;;;8.20;93.20;;;;;;5089766;28;20081;-68
2023/12/16 09:14:30;;;;;;;3.63;1.08;;;8.20;93.20;;;;;;5105777;28;20105;-68
2023/12/16 09:16:56;;;;;;;0.00;0.00;;;8.20;93.20;;;;;;5070818;28;20494;-68
2023/12/16 09:19:22;;;;;;;0.43;0.43;;;8.20;93.30;;;;;;5089162;28;20042;-68
2023/12/16 09:21:49;;;;;;;0.00;0.00;;;8.30;93.30;;;;;;5089283;28;20032;-69
2023/12/16 09:24:15;;;;;;;0.00;0.00;;;8.30;93.20;;;;;;5088868;28;20044;-68
2023/12/16 09:26:41;;;;;;;0.35;0.35;;;8.30;93.20;;;;;;5088980;28;20060;-68
2023/12/16 09:29:06;;;;;;;0.00;0.00;;;8.30;93.20;;;;;;5087777;28;20117;-68
2023/12/16 09:31:33;;;;;;;0.10;0.10;;;8.30;93.30;;;;;;5088410;28;20047;-68
2023/12/16 09:33:59;;;;;;;5.28;1.38;;;8.20;93.30;;;;;;5105309;28;20048;-68
2023/12/16 09:36:27;;;;;;;0.00;0.00;;;8.30;93.50;;;;;;5089018;28;20042;-68
2023/12/16 09:38:59;;;;;;;0.00;0.00;;;8.20;93.40;;;;;;5103603;28;20125;-69
2023/12/16 09:41:29;;;;;;;0.00;0.00;;;8.30;93.50;;;;;;5088608;28;20036;-68
2023/12/16 09:44:03;;;;;;;0.00;0.00;;;8.20;93.50;;;;;;5069285;28;20390;-69
2023/12/16 09:46:30;;;;;;;0.05;0.05;;;8.20;93.50;;;;;;5087932;28;20047;-67
2023/12/16 09:48:56;;;;;;;0.25;0.25;;;8.20;93.40;;;;;;5086102;28;20649;-69
2023/12/16 09:51:23;;;;;;;1.02;1.02;;;8.20;93.40;;;;;;5088730;28;20117;-68
2023/12/16 09:53:50;;;;;;;0.00;0.00;;;8.20;93.30;;;;;;5089114;28;20555;-69
2023/12/16 09:56:17;;;;;;;0.00;0.00;;;8.10;93.40;;;;;;5088983;28;20039;-68
2023/12/16 09:58:45;;;;;;;0.00;0.00;;;8.30;94.00;;;;;;5104512;28;20106;-68
2023/12/16 10:01:11;;;;;;;0.10;0.10;;;8.40;94.30;;;;;;5089071;28;20040;-68
2023/12/16 10:03:38;;;;;;;0.05;0.05;;;8.50;94.20;;;;;;5088423;28;20039;-68
2023/12/16 10:06:09;;;;;;;0.10;0.10;;;8.60;94.30;;;;;;5089031;28;20082;-68
2023/12/16 10:08:35;;;;;;;0.00;0.00;;;8.60;94.20;;;;;;5088757;28;20047;-68
2023/12/16 10:11:02;;;;;;;0.52;0.52;;;8.60;94.30;;;;;;5070053;28;20129;-68
2023/12/16 10:13:30;;;;;;;0.00;0.00;;;8.60;94.30;;;;;;5086837;28;20177;-69
2023/12/16 10:15:56;;;;;;;0.00;0.00;;;8.70;94.40;;;;;;5074475;28;20152;-69
2023/12/16 10:18:23;;;;;;;0.10;0.10;;;8.80;94.40;;;;;;5084672;28;20097;-68
2023/12/16 10:20:48;;;;;;;0.00;0.00;;;8.70;94.30;;;;;;5113585;27;20055;-68
2023/12/16 10:23:14;;;;;;;1.10;0.90;;;8.70;94.30;;;;;;5068571;28;20051;-69
2023/12/16 10:25:41;;;;;;;0.00;0.00;;;8.70;94.30;;;;;;5068377;28;20083;-70
2023/12/16 10:28:07;;;;;;;0.00;0.00;;;8.80;94.30;;;;;;5068678;28;20044;-70
2023/12/16 10:30:33;;;;;;;0.57;0.57;;;8.70;94.40;;;;;;5085057;28;20447;-70
2023/12/16 10:33:03;;;;;;;0.10;0.10;;;8.70;94.40;;;;;;5087762;28;20047;-70
2023/12/16 10:35:30;;;;;;;0.03;0.03;;;8.80;94.50;;;;;;5068990;28;20056;-70
2023/12/16 10:37:56;;;;;;;0.00;0.00;;;8.70;94.50;;;;;;5086900;28;20834;-69
2023/12/16 10:40:25;;;;;;;0.00;0.00;;;8.70;94.60;;;;;;5068760;28;20055;-70
2023/12/16 10:42:50;;;;;;;0.52;0.52;;;8.70;94.60;;;;;;5087737;28;20823;-69
2023/12/16 10:45:16;;;;;;;0.85;0.85;;;8.70;94.60;;;;;;5087106;28;20043;-69
2023/12/16 10:47:43;;;;;;;0.10;0.10;;;8.70;94.60;;;;;;5086443;28;20147;-70
2023/12/16 10:50:12;;;;;;;0.00;0.00;;;8.60;94.70;;;;;;5086521;28;20047;-70
2023/12/16 10:52:45;;;;;;;0.00;0.00;;;8.60;94.70;;;;;;5101058;28;20116;-70
2023/12/16 10:55:22;;;;;;;0.00;0.00;;;8.60;94.70;;;;;;5087492;28;20055;-70
2023/12/16 10:57:55;;;;;;;0.10;0.10;;;8.60;94.60;;;;;;5088100;28;20094;-70
2023/12/16 11:00:26;;;;;;;0.00;0.00;;;8.60;94.70;;;;;;5092265;28;20047;-70
2023/12/16 11:03:03;;;;;;;0.10;0.10;;;8.60;94.70;;;;;;5084161;28;20079;-69
2023/12/16 11:05:34;;;;;;;0.30;0.30;;;8.50;94.80;;;;;;5083184;28;20105;-71
2023/12/16 11:08:04;;;;;;;0.08;0.08;;;8.60;94.80;;;;;;5098915;28;20044;-69
2023/12/16 11:10:30;;;;;;;0.15;0.15;;;8.60;94.90;;;;;;5064289;28;20799;-69
2023/12/16 11:12:59;;;;;;;0.08;0.08;;;8.60;94.80;;;;;;5065753;28;20113;-69
2023/12/16 11:15:26;;;;;;;0.05;0.05;;;8.60;94.90;;;;;;5065809;28;20056;-69
2023/12/16 11:18:13;;;;;;;0.22;0.22;;;8.60;94.90;;;;;;5081358;28;20055;-69
2023/12/16 11:20:43;;;;;;;0.00;0.00;;;8.60;94.90;;;;;;5072822;28;20055;-69
2023/12/16 11:23:10;;;;;;;0.00;0.00;;;8.70;95.00;;;;;;5085178;28;20036;-69
2023/12/16 11:25:36;;;;;;;0.00;0.00;;;8.70;95.00;;;;;;5088976;28;20135;-69
2023/12/16 11:28:04;;;;;;;0.00;0.00;;;8.70;94.90;;;;;;5088699;28;20131;-69
2023/12/16 11:30:32;;;;;;;0.00;0.00;;;8.80;95.00;;;;;;5100071;28;20071;-69
2023/12/16 11:32:59;;;;;;;0.00;0.00;;;8.80;94.90;;;;;;5084307;28;20142;-69
2023/12/16 11:35:37;;;;;;;0.00;0.00;;;8.80;94.90;;;;;;5084957;28;20117;-69
2023/12/16 11:38:04;;;;;;;0.00;0.00;;;8.80;94.90;;;;;;5085408;28;20048;-69
2023/12/16 11:40:42;;;;;;;0.25;0.25;;;8.80;94.90;;;;;;5063644;28;20055;-69
2023/12/16 11:43:12;;;;;;;0.05;0.05;;;8.80;94.90;;;;;;5083467;28;20139;-69
2023/12/16 11:45:39;;;;;;;0.10;0.10;;;8.70;95.10;;;;;;5080779;28;20105;-69
2023/12/16 11:48:05;;;;;;;0.00;0.00;;;8.80;95.10;;;;;;5084041;28;20059;-69
2023/12/16 11:50:34;;;;;;;0.08;0.08;;;8.80;95.20;;;;;;5083380;28;20052;-69
2023/12/16 11:53:01;;;;;;;0.10;0.10;;;8.80;95.00;;;;;;5083229;28;20438;-69
2023/12/16 11:55:27;;;;;;;0.20;0.20;;;8.80;95.00;;;;;;5066752;28;20044;-69
2023/12/16 11:57:53;;;;;;;0.25;0.25;;;8.90;95.10;;;;;;5083497;28;20055;-69
2023/12/16 12:00:19;;;;;;;0.10;0.10;;;8.90;95.10;;;;;;5084571;28;20109;-70
2023/12/16 12:02:47;;;;;;;0.00;0.00;;;8.90;95.10;;;;;;5083567;28;20060;-70
2023/12/16 12:05:14;;;;;;;0.90;0.45;;;8.90;95.10;;;;;;5084006;28;20044;-70
2023/12/16 12:07:40;;;;;;;2.92;2.53;;;8.90;95.10;;;;;;5083758;28;20060;-70
2023/12/16 12:10:06;;;;;;;1.08;0.98;;;9.00;95.00;;;;;;5067189;28;20056;-70
2023/12/16 12:12:31;;;;;;;0.00;0.00;;;9.00;95.00;;;;;;5083625;28;20066;-70
2023/12/16 12:14:57;;;;;;;0.10;0.10;;;9.00;95.00;;;;;;5085267;28;20044;-71
2023/12/16 12:17:23;;;;;;;0.30;0.30;;;9.10;95.00;;;;;;5086739;28;20040;-71
2023/12/16 12:19:49;;;;;;;0.00;0.00;;;9.10;94.90;;;;;;5084702;28;20041;-71
2023/12/16 12:22:14;;;;;;;0.00;0.00;;;9.00;94.90;;;;;;5084615;28;20082;-71
2023/12/16 12:24:40;;;;;;;1.55;0.75;;;9.00;95.00;;;;;;5084326;28;20568;-69
2023/12/16 12:27:08;;;;;;;0.00;0.00;;;9.00;94.90;;;;;;5083662;28;20048;-71
2023/12/16 12:30:06;;;;;;;0.10;0.10;;;9.10;94.90;;;;;;5083843;28;20047;-71
2023/12/16 12:32:33;;;;;;;0.20;0.20;;;9.10;94.80;;;;;;5079604;28;20067;-71
2023/12/16 12:35:06;;;;;;;0.00;0.00;;;9.10;94.80;;;;;;5085160;28;20043;-71
2023/12/16 12:37:43;;;;;;;0.00;0.00;;;9.10;94.70;;;;;;5082114;28;20064;-71
2023/12/16 12:40:12;;;;;;;0.10;0.10;;;9.10;94.70;;;;;;5065869;28;20759;-71
2023/12/16 12:42:45;;;;;;;0.00;0.00;;;9.10;94.70;;;;;;5084700;28;20089;-70
2023/12/16 12:45:26;;;;;;;0.00;0.00;;;9.10;94.70;;;;;;5086206;28;20044;-71
2023/12/16 12:47:52;;;;;;;0.17;0.17;;;9.10;94.60;;;;;;5085374;28;20051;-70
2023/12/16 12:50:20;;;;;;;0.00;0.00;;;9.10;94.50;;;;;;5085353;28;20044;-69
2023/12/16 12:52:46;;;;;;;1.17;0.28;;;9.10;94.50;;;;;;5066594;28;20060;-70
2023/12/16 12:55:11;;;;;;;0.38;0.35;;;9.20;94.50;;;;;;5084849;28;20051;-70